createdAt,value
2018-12-06T00:03:35.793Z,182.47
2018-12-06T00:08:02.223Z,191.83
2018-12-06T00:12:07.305Z,175.90
2018-12-06T00:16:15.218Z,198.20
2018-12-06T00:20:22.359Z,202.03
2018-12-06T00:24:27.752Z,202.33
2018-12-06T00:28:33.130Z,186.27
2018-12-06T00:32:42.077Z,200.40
2018-12-06T00:36:47.446Z,193.67
2018-12-06T00:40:52.678Z,193.70
2018-12-06T00:45:02.579Z,168.67
2018-12-06T00:49:09.578Z,184.93
2018-12-06T00:53:14.767Z,165.73
2018-12-06T00:57:27.184Z,158.43
2018-12-06T01:01:32.939Z,157.87
2018-12-06T01:05:42.829Z,135.10
2018-12-06T01:09:49.517Z,119.83
2018-12-06T01:13:55.471Z,154.33
2018-12-06T01:18:02.408Z,142.43
2018-12-06T01:22:08.018Z,128.20
2018-12-06T01:26:13.186Z,134.83
2018-12-06T01:30:21.721Z,128.37
2018-12-06T01:34:27.752Z,136.67
2018-12-06T01:38:37.796Z,136.00
2018-12-06T01:42:42.824Z,130.30
2018-12-06T01:46:48.890Z,148.37
2018-12-06T01:50:56.949Z,146.67
2018-12-06T01:55:02.406Z,171.47
2018-12-06T01:59:07.508Z,162.03
2018-12-06T02:03:15.972Z,167.27
2018-12-06T02:07:21.056Z,166.77
2018-12-06T02:11:26.250Z,169.23
2018-12-06T02:15:31.389Z,156.07
2018-12-06T02:19:36.264Z,159.83
2018-12-06T02:23:41.375Z,139.33
2018-12-06T02:27:47.669Z,143.70
2018-12-06T02:31:52.597Z,152.93
2018-12-06T02:36:01.454Z,162.00
2018-12-06T02:40:07.309Z,168.53
2018-12-06T02:44:13.692Z,174.87
2018-12-06T02:48:22.228Z,167.87
2018-12-06T02:52:27.302Z,159.77
2018-12-06T02:56:33.275Z,162.17
2018-12-06T03:00:45.272Z,184.20
2018-12-06T03:04:52.245Z,154.43
2018-12-06T03:08:57.256Z,162.83
2018-12-06T03:17:10.966Z,165.30
2018-12-06T03:21:16.821Z,176.17
2018-12-06T03:25:21.875Z,180.93
2018-12-06T03:29:27.092Z,184.27
2018-12-06T03:33:32.068Z,196.90
2018-12-06T03:37:37.640Z,216.97
2018-12-06T03:41:46.848Z,187.50
2018-12-06T03:45:52.440Z,168.13
2018-12-06T03:49:58.787Z,168.00
2018-12-06T03:54:04.212Z,171.77
2018-12-06T03:58:10.016Z,157.87
2018-12-06T04:02:18.059Z,160.53
2018-12-06T04:06:23.204Z,155.27
2018-12-06T04:10:29.704Z,169.60
2018-12-06T04:14:39.163Z,171.40
2018-12-06T04:18:44.253Z,192.17
2018-12-06T04:22:51.324Z,184.63
2018-12-06T04:26:58.582Z,175.70
2018-12-06T04:31:05.526Z,196.53
2018-12-06T04:39:20.611Z,191.77
2018-12-06T04:43:26.076Z,208.33
2018-12-06T04:47:36.093Z,210.77
2018-12-06T04:51:42.456Z,241.03
2018-12-06T04:55:47.548Z,243.07
2018-12-06T04:59:53.271Z,225.80
2018-12-06T05:04:02.061Z,240.03
2018-12-06T05:08:07.822Z,227.80
2018-12-06T05:12:12.981Z,254.67
2018-12-06T05:16:25.551Z,234.20
2018-12-06T05:20:31.438Z,233.10
2018-12-06T05:28:49.824Z,209.57
2018-12-06T05:32:55.024Z,166.23
2018-12-06T05:37:09.589Z,173.07
2018-12-06T05:41:17.983Z,201.10
2018-12-06T05:45:23.447Z,233.23
2018-12-06T05:49:28.516Z,198.17
2018-12-06T05:53:43.484Z,217.67
2018-12-06T05:57:49.377Z,225.53
2018-12-06T06:01:59.089Z,214.77
2018-12-06T06:06:04.436Z,217.40
2018-12-06T06:10:09.596Z,247.80
2018-12-06T06:14:22.222Z,207.93
2018-12-06T06:18:27.558Z,171.43
2018-12-06T06:26:42.248Z,189.13
2018-12-06T06:30:47.501Z,159.70
2018-12-06T06:34:56.811Z,162.90
2018-12-06T06:39:02.630Z,148.70
2018-12-06T06:43:09.797Z,162.77
2018-12-06T06:47:15.135Z,185.20
2018-12-06T06:51:20.361Z,179.67
2018-12-06T06:55:26.216Z,186.67
2018-12-06T07:03:40.703Z,180.77
2018-12-06T07:07:46.706Z,143.87
2018-12-06T07:16:04.664Z,151.37
2018-12-06T07:20:09.843Z,158.63
2018-12-06T07:24:18.359Z,179.10
2018-12-06T07:28:23.357Z,158.37
2018-12-06T07:32:29.883Z,182.60
2018-12-06T07:36:38.198Z,178.50
2018-12-06T07:40:43.360Z,201.57
2018-12-06T07:44:48.524Z,190.77
2018-12-06T07:48:58.453Z,188.73
2018-12-06T07:53:03.641Z,172.80
2018-12-06T07:57:10.380Z,206.20
2018-12-06T08:01:18.120Z,185.93
2018-12-06T08:05:23.872Z,171.47
2018-12-06T08:09:28.911Z,169.93
2018-12-06T08:13:36.970Z,181.30
2018-12-06T08:17:46.272Z,157.37
2018-12-06T08:26:05.361Z,144.17
2018-12-06T08:30:10.791Z,145.57
2018-12-06T08:34:18.249Z,143.90
2018-12-06T08:38:23.727Z,135.90
2018-12-06T08:42:29.373Z,132.57
2018-12-06T08:46:39.100Z,144.03
2018-12-06T08:50:44.705Z,133.27
2018-12-06T08:54:51.238Z,151.17
2018-12-06T08:58:59.041Z,129.77
2018-12-06T09:03:06.266Z,152.87
2018-12-06T09:11:21.020Z,126.03
2018-12-06T09:15:28.349Z,141.63
2018-12-06T09:19:40.271Z,145.77
2018-12-06T09:23:45.746Z,166.70
2018-12-06T09:27:51.060Z,167.43
2018-12-06T09:32:04.480Z,169.73
2018-12-06T09:36:09.891Z,145.90
2018-12-06T09:40:18.725Z,152.07
2018-12-06T09:44:24.711Z,147.60
2018-12-06T09:48:31.144Z,158.60
2018-12-06T09:52:38.566Z,156.20
2018-12-06T10:01:06.883Z,179.93
2018-12-06T10:05:13.156Z,158.07
2018-12-06T10:09:21.079Z,170.93
2018-12-06T10:13:27.767Z,152.10
2018-12-06T10:17:33.148Z,166.73
2018-12-06T10:21:41.152Z,132.50
2018-12-06T10:25:46.385Z,141.90
2018-12-06T10:29:52.032Z,123.93
2018-12-06T10:33:58.306Z,120.23
2018-12-06T10:38:04.982Z,136.67
2018-12-06T10:42:10.448Z,126.20
2018-12-06T10:46:19.680Z,108.50
2018-12-06T10:50:25.167Z,132.03
2018-12-06T10:54:31.376Z,112.63
2018-12-06T10:58:38.296Z,114.93
2018-12-06T11:02:49.603Z,117.47
2018-12-06T11:06:54.838Z,115.43
2018-12-06T11:11:01.549Z,120.73
2018-12-06T11:15:07.100Z,109.73
2018-12-06T11:19:12.528Z,123.67
2018-12-06T11:23:17.768Z,111.67
2018-12-06T11:27:23.728Z,123.50
2018-12-06T11:31:29.077Z,110.00
2018-12-06T11:35:34.495Z,103.77
2018-12-06T11:39:39.827Z,100.97
2018-12-06T11:43:46.391Z,101.27
2018-12-06T11:47:51.619Z,99.90
2018-12-06T11:51:56.924Z,99.67
2018-12-06T11:56:02.561Z,115.63
2018-12-06T12:00:12.554Z,120.43
2018-12-06T12:04:18.611Z,105.20
2018-12-06T12:08:24.091Z,120.33
2018-12-06T12:12:32.057Z,114.30
2018-12-06T12:16:40.239Z,103.23
2018-12-06T12:20:45.634Z,101.80
2018-12-06T12:24:50.922Z,102.60
2018-12-06T12:28:57.823Z,96.60
2018-12-06T12:33:03.455Z,97.93
2018-12-06T12:37:08.886Z,88.77
2018-12-06T12:41:14.366Z,101.93
2018-12-06T12:45:19.694Z,96.53
2018-12-06T12:49:34.194Z,93.47
2018-12-06T12:53:39.475Z,93.33
2018-12-06T12:57:46.171Z,91.40
2018-12-06T13:01:52.609Z,92.33
2018-12-06T13:06:00.052Z,98.33
2018-12-06T13:10:05.834Z,93.87
2018-12-06T13:14:14.602Z,108.30
2018-12-06T13:18:20.001Z,96.30
2018-12-06T13:22:26.341Z,106.07
2018-12-06T13:26:33.414Z,115.27
2018-12-06T13:30:38.960Z,112.53
2018-12-06T13:34:44.277Z,96.47
2018-12-06T13:38:51.029Z,102.23
2018-12-06T13:42:58.559Z,111.73
2018-12-06T13:47:04.031Z,108.57
2018-12-06T13:51:10.353Z,121.77
2018-12-06T13:55:20.646Z,99.93
2018-12-06T13:59:28.042Z,108.80
2018-12-06T14:03:33.388Z,105.00
2018-12-06T14:07:40.296Z,102.00
2018-12-06T14:11:47.052Z,97.33
2018-12-06T14:15:52.520Z,98.03
2018-12-06T14:20:01.710Z,103.50
2018-12-06T14:24:07.218Z,96.13
2018-12-06T14:28:17.033Z,79.00
2018-12-06T14:32:22.284Z,99.33
2018-12-06T14:40:40.570Z,105.50
2018-12-06T14:44:47.194Z,96.97
2018-12-06T14:48:52.504Z,95.57
2018-12-06T14:52:57.975Z,101.53
2018-12-06T14:57:04.453Z,86.20
2018-12-06T15:01:11.224Z,110.27
2018-12-06T15:05:18.023Z,94.53
2018-12-06T15:09:23.984Z,102.40
2018-12-06T15:13:30.065Z,108.63
2018-12-06T15:17:36.031Z,93.90
2018-12-06T15:21:42.394Z,73.47
2018-12-06T15:25:48.007Z,98.53
2018-12-06T15:29:54.428Z,98.10
2018-12-06T15:34:00.904Z,96.97
2018-12-06T15:38:05.958Z,103.37
2018-12-06T15:42:11.276Z,107.13
2018-12-06T15:46:16.987Z,94.70
2018-12-06T15:50:22.520Z,92.03
2018-12-06T15:54:27.565Z,92.83
2018-12-06T15:58:33.014Z,90.40
2018-12-06T16:02:38.921Z,98.23
2018-12-06T16:06:46.252Z,84.40
2018-12-06T16:10:52.045Z,92.13
2018-12-06T16:14:57.600Z,81.60
2018-12-06T16:19:02.975Z,75.50
2018-12-06T16:23:08.988Z,87.03
2018-12-06T16:27:15.095Z,74.57
2018-12-06T16:31:23.717Z,91.97
2018-12-06T16:35:28.736Z,89.00
2018-12-06T16:39:34.798Z,99.57
2018-12-06T16:43:41.633Z,79.67
2018-12-06T16:47:48.117Z,94.10
2018-12-06T16:51:54.040Z,81.20
2018-12-06T16:56:00.733Z,88.17
2018-12-06T17:00:09.437Z,80.83
2018-12-06T17:04:16.591Z,68.70
2018-12-06T17:08:21.753Z,71.83
2018-12-06T17:12:28.503Z,63.43
2018-12-06T17:16:34.729Z,78.33
2018-12-06T17:20:41.965Z,69.40
2018-12-06T17:24:47.078Z,77.70
2018-12-06T17:28:53.914Z,78.00
2018-12-06T17:33:34.113Z,85.40
2018-12-06T17:37:42.679Z,79.73
2018-12-06T17:41:51.750Z,76.83
2018-12-06T17:46:02.868Z,89.53
2018-12-06T17:50:08.613Z,81.00
2018-12-06T17:54:14.335Z,96.30
2018-12-06T17:58:20.138Z,88.30
2018-12-06T18:02:28.350Z,89.23
2018-12-06T18:06:35.196Z,93.40
2018-12-06T18:10:45.139Z,90.93
2018-12-06T18:14:51.570Z,92.93
2018-12-06T18:18:57.827Z,90.00
2018-12-06T18:23:13.075Z,97.33
2018-12-06T18:27:18.593Z,97.77
2018-12-06T18:31:28.097Z,90.03
2018-12-06T18:35:35.006Z,68.47
2018-12-06T18:39:42.021Z,88.47
2018-12-06T18:43:57.100Z,89.67
2018-12-06T18:48:07.018Z,95.50
2018-12-06T18:52:15.312Z,97.80
2018-12-06T19:00:35.671Z,99.27
2018-12-06T19:04:41.346Z,94.83
2018-12-06T19:08:56.873Z,95.40
2018-12-06T19:17:15.895Z,91.90
2018-12-06T19:25:33.835Z,89.70
2018-12-06T19:29:40.322Z,97.17
2018-12-06T19:33:52.781Z,106.57
2018-12-06T19:37:59.802Z,101.00
2018-12-06T19:42:06.994Z,113.07
2018-12-06T19:50:21.266Z,103.93
2018-12-06T19:54:27.623Z,94.67
2018-12-06T19:58:33.921Z,98.30
2018-12-06T20:02:43.011Z,103.40
2018-12-06T20:06:48.979Z,98.40
2018-12-06T20:10:56.638Z,103.77
2018-12-06T20:15:02.151Z,91.23
2018-12-06T20:19:10.998Z,107.30
2018-12-06T20:23:17.309Z,126.20
2018-12-06T20:27:23.498Z,112.03
2018-12-06T20:33:07.337Z,101.53
2018-12-06T20:41:20.790Z,115.03
2018-12-06T20:45:25.901Z,129.17
2018-12-06T20:49:31.151Z,110.40
2018-12-06T20:53:43.220Z,105.53
2018-12-06T20:57:48.387Z,115.97
2018-12-06T21:01:57.877Z,116.80
2018-12-06T21:06:04.138Z,120.13
2018-12-06T21:10:09.283Z,131.33
2018-12-06T21:14:22.113Z,113.17
2018-12-06T21:18:25.830Z,123.20
2018-12-06T21:22:40.504Z,125.63
2018-12-06T21:26:45.606Z,108.50
2018-12-06T21:30:50.864Z,131.30
2018-12-06T21:35:03.935Z,111.63
2018-12-06T21:39:10.530Z,133.87
2018-12-06T21:43:23.105Z,94.47
2018-12-06T21:47:28.770Z,132.23
2018-12-06T21:51:37.850Z,109.43
2018-12-06T21:55:44.063Z,121.23
2018-12-06T21:59:49.785Z,106.10
2018-12-06T22:03:54.821Z,118.00
2018-12-06T22:08:04.460Z,139.73
2018-12-06T22:12:11.667Z,124.20
2018-12-06T22:20:26.253Z,116.03
2018-12-06T22:24:33.107Z,133.60
2018-12-06T22:28:39.023Z,129.87
2018-12-06T22:32:44.371Z,125.83
2018-12-06T22:36:49.656Z,109.90
2018-12-06T22:40:56.375Z,135.23
2018-12-06T22:46:07.840Z,120.50
2018-12-06T22:50:13.142Z,117.47
2018-12-06T22:54:18.614Z,119.53
2018-12-06T22:58:23.992Z,126.90
2018-12-06T23:02:33.533Z,125.83
2018-12-06T23:06:39.894Z,119.23
2018-12-06T23:10:45.399Z,126.23
2018-12-06T23:14:54.204Z,131.90
2018-12-06T23:19:00.164Z,122.93
2018-12-06T23:23:05.831Z,116.63
2018-12-06T23:27:15.325Z,121.47
2018-12-06T23:31:21.917Z,124.83
2018-12-06T23:35:31.540Z,122.63
2018-12-06T23:39:36.566Z,107.90
2018-12-06T23:43:41.821Z,118.80
2018-12-06T23:51:57.164Z,116.43
2018-12-06T23:56:02.434Z,118.17
